Time;durP1;ratioP1;P1;durP2;ratioP2;P2;SDS_P1;SDS_P2;PMS_P1;PMS_P2;Temp;Humidity;BMP_temperature;BMP_pressure;BME280_temperature;BME280_humidity;BME280_pressure;Samples;Min_cycle;Max_cycle;Signal;HPM_P1;HPM_P2
2023/02/23 00:00:32;;;;;;;29.27;24.23;;;8.30;99.90;;;;;;5051870;28;20200;-49
2023/02/23 00:03:01;;;;;;;41.83;33.37;;;8.30;99.90;;;;;;5051191;28;20571;-49
2023/02/23 00:05:31;;;;;;;31.40;26.50;;;8.20;99.90;;;;;;5050995;28;20219;-49
2023/02/23 00:07:58;;;;;;;34.13;24.77;;;8.30;99.90;;;;;;5042992;28;20639;-50
2023/02/23 00:10:29;;;;;;;25.50;19.87;;;8.20;99.90;;;;;;5051326;28;20732;-49
2023/02/23 00:12:56;;;;;;;22.20;17.87;;;8.20;99.90;;;;;;5049338;28;20196;-50
2023/02/23 00:15:25;;;;;;;25.40;17.50;;;8.20;99.90;;;;;;5050712;28;20266;-49
2023/02/23 00:17:53;;;;;;;34.73;28.93;;;8.30;99.90;;;;;;5050353;28;20275;-50
2023/02/23 00:20:24;;;;;;;37.07;31.07;;;8.20;99.90;;;;;;5045500;28;20226;-49
2023/02/23 00:22:53;;;;;;;31.40;25.87;;;8.20;99.90;;;;;;5051018;28;20250;-50
2023/02/23 00:25:21;;;;;;;28.60;21.87;;;8.10;99.90;;;;;;5050320;28;20302;-48
2023/02/23 00:27:49;;;;;;;23.90;21.20;;;8.20;99.90;;;;;;5051057;28;20219;-49
2023/02/23 00:30:18;;;;;;;25.90;19.10;;;8.10;99.90;;;;;;5051328;28;20205;-50
2023/02/23 00:32:45;;;;;;;31.93;19.77;;;8.10;99.90;;;;;;5051181;28;20207;-49
2023/02/23 00:35:17;;;;;;;28.83;19.73;;;8.00;99.90;;;;;;5047521;28;20196;-49
2023/02/23 00:37:45;;;;;;;25.27;19.33;;;8.00;99.90;;;;;;5050152;28;20380;-48
2023/02/23 00:40:15;;;;;;;30.50;20.50;;;8.10;99.90;;;;;;5051134;28;20285;-50
2023/02/23 00:42:44;;;;;;;25.37;19.83;;;8.10;99.90;;;;;;5050734;28;20575;-49
2023/02/23 00:45:13;;;;;;;31.67;20.80;;;8.00;99.90;;;;;;5049878;28;20223;-50
2023/02/23 00:47:42;;;;;;;28.07;18.17;;;8.00;99.90;;;;;;5051064;28;20223;-49
2023/02/23 00:50:12;;;;;;;27.43;19.27;;;8.00;99.90;;;;;;5050674;28;20737;-50
2023/02/23 00:52:42;;;;;;;25.80;19.07;;;7.90;99.90;;;;;;5048785;28;20288;-49
2023/02/23 00:55:11;;;;;;;30.37;20.90;;;7.90;99.90;;;;;;5049417;28;20199;-49
2023/02/23 00:57:42;;;;;;;34.60;23.90;;;7.90;99.90;;;;;;5076308;22;20228;-46
2023/02/23 01:00:19;;;;;;;26.93;20.97;;;7.90;99.90;;;;;;5030201;28;20314;-47
2023/02/23 01:02:46;;;;;;;30.07;20.73;;;7.90;99.90;;;;;;5031574;28;20209;-47
2023/02/23 01:05:13;;;;;;;30.23;19.53;;;7.90;99.90;;;;;;5030296;28;20223;-48
2023/02/23 01:07:40;;;;;;;28.67;20.43;;;7.90;99.90;;;;;;5029489;28;20212;-46
2023/02/23 01:10:18;;;;;;;25.93;19.63;;;7.90;99.90;;;;;;5029053;28;20209;-46
2023/02/23 01:12:47;;;;;;;24.17;18.17;;;7.90;99.90;;;;;;5031216;28;20203;-47
2023/02/23 01:15:17;;;;;;;31.07;21.47;;;7.90;99.90;;;;;;5030261;28;20291;-46
2023/02/23 01:17:45;;;;;;;26.53;19.57;;;7.80;99.90;;;;;;5029089;28;20262;-46
2023/02/23 01:20:17;;;;;;;28.07;20.40;;;7.80;99.90;;;;;;5030143;28;20223;-45
2023/02/23 01:22:45;;;;;;;31.27;19.90;;;7.80;99.90;;;;;;5024456;28;20209;-46
2023/02/23 01:25:12;;;;;;;31.27;20.70;;;7.80;99.90;;;;;;5029736;28;20620;-47
2023/02/23 01:27:40;;;;;;;28.50;20.13;;;7.80;99.90;;;;;;5029427;28;20684;-48
2023/02/23 01:30:10;;;;;;;30.17;21.00;;;7.80;99.90;;;;;;5031139;28;20200;-47
2023/02/23 01:32:42;;;;;;;31.53;21.07;;;7.80;99.90;;;;;;5029637;28;20201;-47
2023/02/23 01:35:11;;;;;;;34.67;21.70;;;7.80;99.90;;;;;;5030679;28;20203;-47
2023/02/23 01:37:43;;;;;;;30.07;21.27;;;7.80;99.90;;;;;;5030558;28;20203;-46
2023/02/23 01:40:15;;;;;;;36.47;21.50;;;7.80;99.90;;;;;;5030080;28;20204;-46
2023/02/23 01:42:44;;;;;;;29.07;20.03;;;7.80;99.90;;;;;;5029522;28;20352;-47
2023/02/23 01:45:30;;;;;;;28.47;20.17;;;7.90;99.90;;;;;;5030470;28;20625;-46
2023/02/23 01:48:03;;;;;;;28.40;19.70;;;7.90;99.90;;;;;;5022623;28;20219;-47
2023/02/23 01:50:37;;;;;;;28.13;21.10;;;7.90;99.90;;;;;;5031081;28;20219;-48
2023/02/23 01:53:05;;;;;;;30.00;19.67;;;7.90;99.90;;;;;;5027912;28;20232;-47
2023/02/23 01:55:32;;;;;;;29.50;21.67;;;7.90;99.90;;;;;;5028432;28;20685;-47
2023/02/23 01:58:06;;;;;;;25.03;18.63;;;7.90;99.90;;;;;;5030461;28;20245;-47
2023/02/23 02:00:35;;;;;;;30.17;18.93;;;7.90;99.90;;;;;;5029824;28;20670;-47
2023/02/23 02:03:10;;;;;;;27.17;19.63;;;8.00;99.90;;;;;;5026854;28;20287;-49
2023/02/23 02:05:39;;;;;;;25.63;17.83;;;8.00;99.90;;;;;;5026940;28;20232;-48
2023/02/23 02:08:09;;;;;;;26.10;18.90;;;8.00;99.90;;;;;;5029612;28;20224;-48
2023/02/23 02:10:43;;;;;;;28.00;19.80;;;8.00;99.90;;;;;;5029879;28;20234;-47
2023/02/23 02:13:13;;;;;;;26.97;18.80;;;7.90;99.90;;;;;;5025151;28;20198;-47
2023/02/23 02:16:05;;;;;;;23.20;16.77;;;7.90;99.90;;;;;;5030917;28;20609;-47
2023/02/23 02:18:42;;;;;;;22.87;16.67;;;7.90;99.90;;;;;;5029763;28;20311;-47
2023/02/23 02:21:27;;;;;;;25.30;17.50;;;7.90;99.90;;;;;;5021397;28;20649;-48
2023/02/23 02:24:42;;;;;;;28.03;19.27;;;7.90;99.90;;;;;;5029221;28;20226;-47
2023/02/23 02:27:21;;;;;;;29.83;19.70;;;7.90;99.90;;;;;;5029786;28;20204;-47
2023/02/23 02:30:21;;;;;;;33.43;22.30;;;7.80;99.90;;;;;;5026296;28;20236;-47
2023/02/23 02:33:21;;;;;;;35.10;23.07;;;7.90;99.90;;;;;;5030302;28;20204;-47
2023/02/23 02:36:21;;;;;;;33.03;23.13;;;8.00;99.90;;;;;;5034171;28;20205;-48
2023/02/23 02:39:00;;;;;;;31.97;23.57;;;7.90;99.90;;;;;;5033910;28;20230;-47
2023/02/23 02:41:42;;;;;;;37.80;24.63;;;7.80;99.90;;;;;;5034013;28;20208;-47
2023/02/23 02:44:15;;;;;;;32.67;23.33;;;7.90;99.90;;;;;;5033288;28;20232;-47
2023/02/23 02:46:47;;;;;;;32.30;23.23;;;7.80;99.90;;;;;;5033010;28;20212;-47
2023/02/23 02:49:21;;;;;;;35.93;24.40;;;7.90;99.90;;;;;;5033659;28;20302;-48
2023/02/23 02:51:53;;;;;;;36.70;24.83;;;7.80;99.90;;;;;;5033718;28;20622;-46
2023/02/23 02:54:27;;;;;;;33.30;24.67;;;7.60;99.90;;;;;;5032683;28;20212;-47
2023/02/23 02:56:56;;;;;;;35.10;25.60;;;7.60;99.90;;;;;;5033280;28;20287;-46
2023/02/23 04:18:16;;;;;;;44.97;30.70;;;7.10;99.90;;;;;;5032320;28;20211;-49
2023/02/23 04:20:43;;;;;;;46.03;31.57;;;7.20;99.90;;;;;;5028299;28;20237;-47
2023/02/23 04:23:10;;;;;;;47.13;33.43;;;7.20;99.90;;;;;;5030807;28;20636;-47
2023/02/23 04:25:37;;;;;;;43.20;30.47;;;7.20;99.90;;;;;;5032061;28;20223;-46
2023/02/23 04:28:05;;;;;;;50.77;33.93;;;7.20;99.90;;;;;;5030895;28;20248;-48
2023/02/23 04:30:32;;;;;;;44.23;31.73;;;7.20;99.90;;;;;;5031784;28;20212;-47
2023/02/23 04:32:59;;;;;;;48.57;33.77;;;7.10;99.90;;;;;;5028661;28;20200;-48
2023/02/23 04:35:30;;;;;;;47.90;32.90;;;7.10;99.90;;;;;;5028066;28;20199;-47
2023/02/23 04:37:57;;;;;;;44.33;31.73;;;7.10;99.90;;;;;;5031627;28;20247;-47
2023/02/23 04:40:24;;;;;;;50.23;33.60;;;7.10;99.90;;;;;;5031776;28;20231;-47
2023/02/23 04:42:52;;;;;;;46.30;31.07;;;7.20;99.90;;;;;;5030442;28;20254;-48
2023/02/23 04:45:19;;;;;;;43.60;31.90;;;7.10;99.90;;;;;;5028687;28;20218;-47
2023/02/23 04:47:46;;;;;;;47.07;32.97;;;7.20;99.90;;;;;;5029438;28;20210;-47
2023/02/23 04:50:14;;;;;;;53.33;33.50;;;7.20;99.90;;;;;;5031578;28;20195;-47
2023/02/23 04:52:42;;;;;;;51.73;33.73;;;7.30;99.90;;;;;;5031540;28;20209;-48
2023/02/23 04:55:16;;;;;;;45.23;32.57;;;7.30;99.90;;;;;;5031322;28;20587;-48
2023/02/23 04:57:44;;;;;;;46.23;32.97;;;7.30;99.90;;;;;;5029483;28;20204;-48
2023/02/23 05:00:13;;;;;;;52.33;33.03;;;7.30;99.90;;;;;;5028180;28;20204;-48
2023/02/23 05:02:41;;;;;;;52.00;34.97;;;7.30;99.90;;;;;;5031338;28;20263;-47
2023/02/23 05:05:09;;;;;;;51.97;33.87;;;7.40;99.90;;;;;;5031300;28;20262;-47
2023/02/23 05:07:39;;;;;;;53.60;35.53;;;7.50;99.90;;;;;;5029752;28;20200;-47
2023/02/23 05:10:10;;;;;;;49.13;33.73;;;7.40;99.90;;;;;;5030190;28;20246;-47
2023/02/23 05:12:37;;;;;;;46.90;33.33;;;7.40;99.90;;;;;;5027864;28;20211;-47
2023/02/23 05:15:04;;;;;;;56.10;34.63;;;7.40;99.90;;;;;;5030446;28;20253;-47
2023/02/23 05:17:31;;;;;;;57.30;35.27;;;7.40;99.90;;;;;;5031289;28;20201;-46
2023/02/23 05:19:58;;;;;;;50.60;36.53;;;7.40;99.90;;;;;;5011300;28;20226;-47
2023/02/23 05:22:25;;;;;;;57.30;37.90;;;7.40;99.90;;;;;;5011317;28;20258;-47
2023/02/23 05:24:52;;;;;;;61.30;35.40;;;7.40;99.90;;;;;;5012924;28;20298;-47
2023/02/23 05:27:21;;;;;;;57.40;37.47;;;7.40;99.90;;;;;;5030029;28;20223;-47
2023/02/23 05:29:48;;;;;;;62.43;39.10;;;7.40;99.90;;;;;;5030134;28;20278;-48
2023/02/23 05:32:15;;;;;;;51.10;34.07;;;7.40;99.90;;;;;;5030427;28;20245;-48
2023/02/23 05:34:42;;;;;;;62.90;37.43;;;7.40;99.90;;;;;;5028484;28;20211;-47
2023/02/23 05:37:09;;;;;;;56.57;38.10;;;7.40;99.90;;;;;;5030963;28;20207;-47
2023/02/23 05:39:36;;;;;;;64.07;38.53;;;7.40;99.90;;;;;;5030127;28;20226;-48
2023/02/23 05:42:03;;;;;;;54.90;37.80;;;7.40;99.90;;;;;;5030879;28;20256;-47
2023/02/23 05:44:31;;;;;;;55.50;38.00;;;7.40;99.90;;;;;;5029968;28;20204;-46
2023/02/23 05:46:58;;;;;;;57.20;38.23;;;7.40;99.90;;;;;;5025618;28;20220;-49
2023/02/23 05:49:25;;;;;;;56.27;35.27;;;7.40;99.90;;;;;;5030730;28;20701;-47
2023/02/23 05:51:52;;;;;;;54.17;37.73;;;7.30;99.90;;;;;;5031254;28;20258;-48
2023/02/23 05:54:19;;;;;;;64.40;38.57;;;7.30;99.90;;;;;;5030751;28;20204;-47
2023/02/23 05:56:46;;;;;;;59.03;36.77;;;7.30;99.90;;;;;;5029826;28;20194;-47
2023/02/23 05:59:13;;;;;;;58.50;37.13;;;7.40;99.90;;;;;;5030085;28;20283;-46
2023/02/23 06:01:41;;;;;;;59.20;38.33;;;7.40;99.90;;;;;;5028270;28;20266;-47
2023/02/23 06:04:08;;;;;;;66.07;39.03;;;7.40;99.90;;;;;;5030292;28;20244;-48
2023/02/23 06:06:35;;;;;;;59.47;38.10;;;7.40;99.90;;;;;;5045575;28;20261;-46
2023/02/23 06:09:03;;;;;;;63.20;40.03;;;7.40;99.90;;;;;;5051737;28;20283;-47
2023/02/23 06:11:30;;;;;;;57.03;37.07;;;7.40;99.90;;;;;;5040861;28;20271;-46
2023/02/23 06:13:59;;;;;;;58.07;38.77;;;7.40;99.90;;;;;;5033957;28;20342;-49
2023/02/23 06:16:26;;;;;;;59.50;36.43;;;7.40;99.90;;;;;;5033269;28;20650;-46
2023/02/23 06:18:54;;;;;;;63.50;38.47;;;7.40;99.90;;;;;;5034199;28;20736;-47
2023/02/23 06:21:22;;;;;;;57.77;36.53;;;7.40;99.90;;;;;;5033460;28;20201;-47
2023/02/23 06:23:49;;;;;;;61.83;39.20;;;7.40;99.90;;;;;;5032965;28;20204;-47
2023/02/23 06:26:16;;;;;;;68.87;39.63;;;7.40;99.90;;;;;;5032464;28;20212;-48
2023/02/23 06:28:43;;;;;;;53.77;35.33;;;7.40;99.90;;;;;;5033106;28;20228;-47
2023/02/23 06:31:10;;;;;;;64.67;37.17;;;7.40;99.90;;;;;;5032156;28;20265;-46
2023/02/23 06:33:37;;;;;;;58.70;37.33;;;7.40;99.90;;;;;;5031854;28;20207;-47
2023/02/23 06:36:06;;;;;;;52.23;36.17;;;7.40;99.90;;;;;;5034194;28;20198;-47
2023/02/23 06:38:33;;;;;;;54.57;36.27;;;7.40;99.90;;;;;;5032391;28;20263;-48
2023/02/23 06:41:00;;;;;;;54.07;36.23;;;7.50;99.90;;;;;;5033802;28;20812;-46
2023/02/23 06:43:28;;;;;;;59.80;36.13;;;7.50;99.90;;;;;;5030066;28;20200;-47
2023/02/23 06:45:55;;;;;;;55.23;36.20;;;7.50;99.90;;;;;;5032807;28;20713;-47
2023/02/23 06:48:22;;;;;;;58.77;36.33;;;7.50;99.90;;;;;;5030107;28;20302;-46
2023/02/23 06:50:49;;;;;;;55.00;35.50;;;7.50;99.90;;;;;;5032111;28;20258;-47
2023/02/23 06:53:19;;;;;;;56.00;37.10;;;7.50;99.90;;;;;;5033601;28;20199;-47
2023/02/23 06:55:46;;;;;;;63.53;38.57;;;7.50;99.90;;;;;;5033783;28;20212;-48
2023/02/23 06:58:13;;;;;;;55.87;34.37;;;7.50;99.90;;;;;;5049555;28;20230;-46
2023/02/23 07:00:41;;;;;;;57.97;38.33;;;7.50;99.90;;;;;;5053641;28;20209;-47
2023/02/23 07:03:09;;;;;;;57.63;38.13;;;7.50;99.90;;;;;;5032972;28;20576;-46
2023/02/23 07:05:37;;;;;;;58.03;39.30;;;7.50;99.90;;;;;;5032442;28;20215;-47
2023/02/23 07:08:04;;;;;;;58.47;37.60;;;7.50;99.90;;;;;;5032168;28;20220;-48
2023/02/23 07:10:33;;;;;;;61.43;40.83;;;7.50;99.90;;;;;;5034588;28;20210;-47
2023/02/23 07:13:00;;;;;;;52.20;37.47;;;7.50;99.90;;;;;;5032011;28;20268;-47
2023/02/23 07:15:27;;;;;;;60.07;39.47;;;7.60;99.90;;;;;;5032851;28;20234;-47
2023/02/23 07:17:55;;;;;;;60.00;38.60;;;7.60;99.90;;;;;;5033426;28;20245;-48
2023/02/23 07:20:22;;;;;;;59.33;38.13;;;7.60;99.90;;;;;;5031175;28;20641;-48
2023/02/23 07:22:50;;;;;;;57.27;38.63;;;7.60;99.90;;;;;;5032426;28;20640;-47
2023/02/23 07:25:18;;;;;;;65.13;38.10;;;7.70;99.90;;;;;;5031514;28;20200;-47
2023/02/23 07:27:46;;;;;;;52.73;38.17;;;7.80;99.90;;;;;;5028472;28;20598;-47
2023/02/23 07:30:17;;;;;;;64.63;37.60;;;7.80;99.90;;;;;;5033238;28;20196;-46
2023/02/23 07:32:44;;;;;;;55.40;37.10;;;7.90;99.90;;;;;;5031187;28;20200;-47
2023/02/23 07:35:12;;;;;;;56.20;36.63;;;8.00;99.90;;;;;;5027908;28;20199;-47
2023/02/23 07:37:42;;;;;;;58.23;36.13;;;8.00;99.90;;;;;;5037653;28;20195;-46
2023/02/23 07:40:10;;;;;;;60.97;36.87;;;8.00;99.90;;;;;;5030704;28;20577;-46
2023/02/23 07:42:40;;;;;;;55.47;33.67;;;8.10;99.90;;;;;;5027556;28;20204;-47
2023/02/23 07:45:10;;;;;;;50.87;34.53;;;8.20;99.90;;;;;;5030394;28;20202;-47
2023/02/23 07:47:40;;;;;;;55.70;35.03;;;8.20;99.90;;;;;;5031290;28;20223;-48
2023/02/23 07:50:09;;;;;;;52.70;35.33;;;8.20;99.90;;;;;;5032000;28;20196;-48
2023/02/23 07:52:39;;;;;;;56.67;35.97;;;8.30;99.90;;;;;;5028378;28;20303;-47
2023/02/23 07:55:08;;;;;;;51.90;34.80;;;8.50;99.90;;;;;;5029398;28;20198;-48
2023/02/23 07:57:38;;;;;;;49.93;35.90;;;8.50;99.90;;;;;;5031762;28;20258;-48
2023/02/23 08:00:06;;;;;;;49.73;32.73;;;8.60;99.90;;;;;;5035452;28;20240;-47
2023/02/23 08:02:35;;;;;;;48.20;31.87;;;8.70;99.90;;;;;;5041162;28;20199;-47
2023/02/23 08:05:02;;;;;;;44.83;31.23;;;8.90;99.90;;;;;;5035604;28;20192;-45
2023/02/23 08:07:33;;;;;;;43.57;30.33;;;9.40;99.90;;;;;;5044116;28;20273;-47
2023/02/23 08:10:00;;;;;;;40.23;27.70;;;9.80;99.90;;;;;;5037671;28;20221;-47
2023/02/23 08:12:27;;;;;;;38.70;26.63;;;10.40;99.90;;;;;;5034914;28;20204;-47
2023/02/23 08:14:54;;;;;;;35.47;25.27;;;10.90;99.90;;;;;;5040228;28;20216;-47
2023/02/23 08:17:21;;;;;;;34.20;22.77;;;11.10;99.90;;;;;;5037021;28;20198;-47
2023/02/23 08:19:50;;;;;;;31.70;23.03;;;11.30;99.90;;;;;;5032497;28;20279;-46
2023/02/23 08:22:17;;;;;;;32.47;24.80;;;11.50;99.90;;;;;;5039653;28;20217;-46
2023/02/23 08:24:44;;;;;;;28.23;21.10;;;11.70;99.90;;;;;;5052388;28;20210;-47
2023/02/23 08:27:11;;;;;;;27.30;21.80;;;12.00;99.90;;;;;;5042581;28;20226;-48
2023/02/23 08:29:38;;;;;;;27.13;19.43;;;12.00;99.90;;;;;;5031280;28;20579;-48
2023/02/23 08:32:06;;;;;;;29.47;19.73;;;12.20;99.90;;;;;;5030411;28;20206;-49
2023/02/23 08:34:38;;;;;;;21.83;18.17;;;12.30;99.90;;;;;;5031672;28;20205;-49
2023/02/23 08:37:06;;;;;;;20.13;17.87;;;12.20;99.90;;;;;;5031751;28;20209;-48
2023/02/23 08:39:34;;;;;;;24.47;18.07;;;12.20;99.90;;;;;;5031903;28;20279;-49
2023/02/23 08:42:01;;;;;;;23.03;17.40;;;12.10;99.90;;;;;;5030389;28;20551;-48
2023/02/23 08:44:29;;;;;;;22.60;18.00;;;11.90;99.90;;;;;;5031618;28;20862;-47
2023/02/23 08:46:58;;;;;;;26.70;19.80;;;11.70;99.90;;;;;;5023219;28;20872;-47
2023/02/23 08:49:25;;;;;;;24.03;18.33;;;11.70;99.90;;;;;;5037360;28;20219;-48
2023/02/23 08:51:52;;;;;;;23.33;19.20;;;11.90;99.90;;;;;;5051636;28;20199;-47
2023/02/23 08:54:20;;;;;;;24.70;19.37;;;11.90;99.90;;;;;;5041162;28;20252;-49
2023/02/23 08:56:47;;;;;;;26.43;20.03;;;12.20;99.90;;;;;;5037356;28;20244;-48
2023/02/23 08:59:15;;;;;;;26.23;19.40;;;12.50;99.90;;;;;;5029649;28;20325;-48
2023/02/23 09:01:42;;;;;;;24.47;19.63;;;12.80;99.90;;;;;;5034548;28;20200;-47
2023/02/23 09:04:09;;;;;;;25.33;19.23;;;12.80;99.90;;;;;;5031147;28;20742;-47
2023/02/23 09:06:37;;;;;;;25.87;20.57;;;12.30;99.90;;;;;;5031686;28;20224;-48
2023/02/23 09:09:04;;;;;;;36.20;21.57;;;11.80;99.90;;;;;;5043068;28;20225;-47
2023/02/23 09:11:33;;;;;;;24.23;18.70;;;11.50;99.90;;;;;;5033644;28;20200;-47
2023/02/23 09:14:00;;;;;;;30.97;20.60;;;11.40;99.90;;;;;;5038980;28;20256;-47
2023/02/23 09:16:27;;;;;;;28.17;20.23;;;11.40;99.90;;;;;;5035554;28;20266;-48
2023/02/23 09:18:54;;;;;;;28.23;20.70;;;11.40;99.90;;;;;;5031049;28;20291;-48
2023/02/23 09:21:23;;;;;;;30.30;21.10;;;11.40;99.90;;;;;;5034944;28;20197;-47
2023/02/23 09:23:53;;;;;;;28.80;20.60;;;11.50;99.90;;;;;;5033309;28;20220;-46
2023/02/23 09:26:20;;;;;;;29.03;20.40;;;11.60;99.90;;;;;;5031011;28;20198;-48
2023/02/23 09:28:48;;;;;;;30.83;22.20;;;11.70;99.90;;;;;;5030982;28;20229;-47
2023/02/23 09:31:18;;;;;;;23.17;18.40;;;12.20;99.90;;;;;;5031254;28;20212;-47
2023/02/23 09:33:45;;;;;;;21.33;17.37;;;12.60;99.90;;;;;;5030958;28;20202;-49
2023/02/23 09:36:15;;;;;;;24.20;18.23;;;12.60;99.90;;;;;;5030943;28;20208;-48
2023/02/23 09:38:42;;;;;;;40.73;24.70;;;12.60;99.90;;;;;;5030994;28;20221;-47
2023/02/23 09:41:35;;;;;;;130.07;53.83;;;12.70;99.90;;;;;;5031205;28;20736;-48
2023/02/23 09:44:13;;;;;;;25.97;20.67;;;12.90;99.90;;;;;;5032508;28;20201;-47
2023/02/23 09:46:48;;;;;;;25.03;18.23;;;13.10;99.90;;;;;;5033307;28;20198;-48
2023/02/23 09:49:19;;;;;;;24.27;17.97;;;13.30;99.90;;;;;;5032936;28;20811;-48
2023/02/23 09:51:54;;;;;;;23.47;16.60;;;13.10;99.90;;;;;;5034830;28;20247;-47
2023/02/23 09:54:23;;;;;;;22.23;17.37;;;13.50;99.90;;;;;;5026406;28;20201;-48
2023/02/23 09:56:55;;;;;;;25.37;17.17;;;13.50;99.90;;;;;;5027442;28;20266;-48
2023/02/23 09:59:25;;;;;;;19.70;16.60;;;13.70;99.90;;;;;;5034836;28;20230;-48
2023/02/23 10:02:05;;;;;;;17.87;14.37;;;13.90;99.90;;;;;;5034888;28;20822;-48
2023/02/23 10:04:38;;;;;;;17.57;14.77;;;14.20;99.90;;;;;;5033906;28;20582;-47
2023/02/23 10:07:12;;;;;;;19.83;15.07;;;14.20;99.90;;;;;;5027766;28;20703;-48
2023/02/23 10:09:53;;;;;;;17.97;14.90;;;14.10;99.90;;;;;;5033687;28;20249;-47
2023/02/23 10:12:30;;;;;;;20.60;18.42;;;13.90;99.90;;;;;;5030824;28;20453;-47
2023/02/23 10:15:07;;;;;;;22.30;15.73;;;13.50;99.90;;;;;;5030145;28;20207;-47
2023/02/23 10:17:49;;;;;;;13.37;11.97;;;13.70;99.90;;;;;;5030106;28;20289;-47
2023/02/23 10:20:23;;;;;;;13.97;12.50;;;14.20;99.90;;;;;;5037391;28;20199;-47
2023/02/23 10:22:52;;;;;;;13.87;10.90;;;14.60;99.90;;;;;;5042392;28;20233;-47
2023/02/23 10:25:24;;;;;;;12.43;11.13;;;14.90;99.90;;;;;;5039088;28;20203;-47
2023/02/23 10:27:52;;;;;;;14.40;11.40;;;14.70;99.90;;;;;;5039462;28;20723;-48
2023/02/23 10:30:23;;;;;;;15.30;12.83;;;14.50;99.90;;;;;;5042160;28;20198;-47
2023/02/23 10:32:56;;;;;;;18.83;13.33;;;14.90;99.90;;;;;;5032936;28;20583;-48
2023/02/23 10:35:24;;;;;;;14.93;12.63;;;15.10;99.90;;;;;;5040595;28;20225;-48
2023/02/23 10:37:53;;;;;;;20.97;13.57;;;14.80;99.90;;;;;;5037687;28;20209;-48
2023/02/23 10:40:23;;;;;;;21.70;12.43;;;14.40;99.90;;;;;;5031228;28;20252;-47
2023/02/23 10:42:50;;;;;;;17.80;12.87;;;13.90;99.90;;;;;;5033923;28;20210;-49
2023/02/23 10:45:21;;;;;;;15.97;13.97;;;13.50;99.90;;;;;;5033510;28;20263;-48
2023/02/23 10:47:54;;;;;;;14.73;12.50;;;13.10;99.90;;;;;;5032863;28;20228;-48
2023/02/23 10:50:25;;;;;;;16.13;13.90;;;12.90;99.90;;;;;;5031261;28;20205;-46
2023/02/23 10:52:56;;;;;;;16.10;13.67;;;12.70;99.90;;;;;;5032824;28;20210;-48
2023/02/23 10:55:26;;;;;;;17.80;14.13;;;12.70;99.90;;;;;;5032311;28;20235;-48
2023/02/23 10:58:15;;;;;;;17.63;13.87;;;12.50;99.90;;;;;;5032258;28;20253;-47
2023/02/23 11:00:52;;;;;;;18.13;13.57;;;12.40;99.90;;;;;;5033861;28;20205;-48
2023/02/23 11:03:27;;;;;;;18.50;13.63;;;12.50;99.90;;;;;;5032222;28;20205;-48
2023/02/23 11:05:54;;;;;;;17.53;13.07;;;12.60;99.90;;;;;;5032367;28;20225;-48
2023/02/23 11:08:28;;;;;;;15.33;13.03;;;12.80;99.90;;;;;;5032320;28;20298;-49
2023/02/23 11:11:01;;;;;;;18.83;13.53;;;12.90;99.90;;;;;;5032875;28;20198;-49
2023/02/23 11:13:34;;;;;;;18.53;13.20;;;12.90;99.90;;;;;;5029611;28;20252;-49
2023/02/23 11:16:03;;;;;;;17.20;13.43;;;12.90;99.90;;;;;;5023204;28;20747;-48
2023/02/23 11:18:32;;;;;;;15.20;11.97;;;12.90;99.90;;;;;;5031543;28;20214;-48
2023/02/23 11:20:59;;;;;;;19.07;13.63;;;12.80;99.90;;;;;;5030506;28;20201;-49
2023/02/23 11:23:29;;;;;;;18.10;13.77;;;12.80;99.90;;;;;;5029893;28;20206;-47
2023/02/23 11:26:00;;;;;;;15.87;12.67;;;12.70;99.90;;;;;;5023567;28;20258;-47
2023/02/23 11:28:30;;;;;;;18.77;13.53;;;12.70;99.90;;;;;;5024674;28;20311;-48
2023/02/23 11:31:00;;;;;;;17.00;13.17;;;12.70;99.90;;;;;;5021677;28;20590;-48
2023/02/23 11:33:34;;;;;;;16.77;12.50;;;12.70;99.90;;;;;;5024771;28;20217;-48
2023/02/23 11:36:16;;;;;;;19.87;14.73;;;12.50;99.90;;;;;;5023781;28;20689;-49
2023/02/23 11:38:45;;;;;;;18.37;13.37;;;12.40;99.90;;;;;;5022319;28;20357;-47
2023/02/23 11:41:21;;;;;;;15.37;13.30;;;12.50;99.90;;;;;;5028152;28;20722;-48
2023/02/23 11:43:50;;;;;;;14.20;12.23;;;12.60;99.90;;;;;;5032352;28;20235;-47
2023/02/23 11:46:20;;;;;;;15.97;13.23;;;12.50;99.90;;;;;;5032562;28;20281;-50
2023/02/23 11:48:52;;;;;;;18.10;14.70;;;12.70;99.90;;;;;;5027886;28;20309;-48
2023/02/23 11:51:29;;;;;;;17.70;13.07;;;12.60;99.90;;;;;;5027628;28;20212;-48
2023/02/23 11:53:56;;;;;;;16.17;13.17;;;12.70;99.90;;;;;;5031574;28;20254;-49
2023/02/23 11:56:25;;;;;;;15.90;12.27;;;12.90;99.90;;;;;;5030494;28;20271;-48
2023/02/23 11:58:54;;;;;;;14.60;10.40;;;13.20;99.90;;;;;;5031180;28;20360;-48
2023/02/23 12:01:34;;;;;;;16.37;12.93;;;13.30;99.90;;;;;;5029100;28;20725;-48
2023/02/23 12:04:04;;;;;;;11.03;8.60;;;13.60;99.90;;;;;;5029154;28;20198;-48
2023/02/23 12:06:34;;;;;;;13.30;9.87;;;13.70;99.90;;;;;;5030719;28;20218;-48
2023/02/23 12:09:11;;;;;;;15.53;11.83;;;13.80;99.90;;;;;;5022941;28;20221;-49
2023/02/23 12:11:44;;;;;;;13.90;11.47;;;13.90;99.90;;;;;;5029599;28;20670;-49
2023/02/23 12:14:18;;;;;;;13.90;11.60;;;14.00;99.90;;;;;;5031318;28;20209;-47
2023/02/23 12:16:49;;;;;;;15.43;12.27;;;13.90;99.90;;;;;;5027572;28;20670;-50
2023/02/23 12:19:27;;;;;;;16.93;11.47;;;13.90;99.90;;;;;;5031250;28;20218;-49
2023/02/23 12:22:03;;;;;;;14.80;12.63;;;13.90;99.90;;;;;;5029452;28;20233;-48
2023/02/23 12:24:42;;;;;;;12.33;11.13;;;13.90;99.90;;;;;;5031799;28;20202;-49
2023/02/23 12:27:13;;;;;;;15.37;11.00;;;13.90;99.90;;;;;;5031193;28;20282;-48
2023/02/23 12:29:51;;;;;;;17.30;11.73;;;14.20;99.90;;;;;;5031544;28;20307;-49
2023/02/23 12:32:24;;;;;;;16.23;11.93;;;14.40;99.90;;;;;;5027236;28;20248;-48
2023/02/23 12:34:58;;;;;;;15.47;11.50;;;14.50;99.90;;;;;;5039292;28;20248;-48
2023/02/23 12:37:35;;;;;;;13.03;11.60;;;14.40;99.90;;;;;;5031779;28;20206;-47
2023/02/23 12:40:13;;;;;;;13.97;11.33;;;14.50;99.90;;;;;;5030893;28;20682;-48
2023/02/23 12:42:50;;;;;;;14.23;12.03;;;14.50;99.90;;;;;;5031372;28;20233;-48
2023/02/23 12:45:23;;;;;;;13.80;12.20;;;14.40;99.90;;;;;;5029090;28;20199;-48
2023/02/23 12:47:59;;;;;;;13.07;11.13;;;14.50;99.90;;;;;;5030173;28;20218;-48
2023/02/23 12:50:30;;;;;;;13.37;9.83;;;14.30;99.90;;;;;;5024227;28;20295;-49
2023/02/23 12:53:00;;;;;;;12.80;10.70;;;14.20;99.90;;;;;;5031115;28;20198;-48
2023/02/23 12:55:40;;;;;;;12.17;10.67;;;14.10;99.90;;;;;;5029512;28;20610;-48
2023/02/23 12:58:20;;;;;;;14.07;12.07;;;14.00;99.90;;;;;;5024390;28;20703;-48
2023/02/23 13:00:55;;;;;;;13.87;10.13;;;14.00;99.90;;;;;;5030713;28;20317;-49
2023/02/23 13:04:03;;;;;;;11.77;10.60;;;14.10;99.90;;;;;;5031167;28;20205;-47
2023/02/23 13:06:41;;;;;;;11.67;9.73;;;14.20;99.90;;;;;;5008719;28;20681;-47
2023/02/23 13:09:28;;;;;;;11.13;9.47;;;14.10;99.90;;;;;;5011421;28;20226;-47
2023/02/23 13:12:06;;;;;;;13.43;10.23;;;14.00;99.90;;;;;;5018186;28;20198;-50
2023/02/23 13:14:42;;;;;;;12.93;9.97;;;14.10;99.90;;;;;;5031986;28;20201;-48
2023/02/23 13:17:24;;;;;;;15.50;9.33;;;14.10;99.90;;;;;;5031611;28;20210;-49
2023/02/23 13:19:55;;;;;;;11.33;8.90;;;14.20;99.90;;;;;;5030299;28;20229;-49
2023/02/23 13:22:32;;;;;;;11.90;9.30;;;14.20;99.90;;;;;;5024697;28;20195;-48
2023/02/23 13:25:02;;;;;;;10.50;9.27;;;14.20;99.90;;;;;;5020803;28;20295;-48
2023/02/23 13:27:34;;;;;;;9.60;8.23;;;14.20;99.90;;;;;;5011416;28;20209;-48
2023/02/23 13:30:01;;;;;;;9.27;8.37;;;14.10;99.90;;;;;;5011194;28;20666;-48
2023/02/23 13:32:31;;;;;;;12.60;9.13;;;14.10;99.90;;;;;;5016824;28;20260;-48
2023/02/23 13:35:00;;;;;;;10.57;9.43;;;14.20;99.90;;;;;;5030718;28;20198;-48
2023/02/23 13:37:33;;;;;;;13.33;9.07;;;14.10;99.90;;;;;;5030892;28;20212;-48
2023/02/23 13:40:19;;;;;;;10.57;9.40;;;14.10;99.90;;;;;;5030989;28;20222;-47
2023/02/23 13:42:57;;;;;;;8.27;7.40;;;14.10;99.90;;;;;;5030529;28;20292;-49
2023/02/23 13:45:48;;;;;;;9.53;8.63;;;14.00;99.90;;;;;;5031005;28;20225;-48
2023/02/23 13:48:24;;;;;;;8.70;7.90;;;13.90;99.90;;;;;;5031024;28;20234;-47
2023/02/23 13:50:57;;;;;;;11.37;8.90;;;13.90;99.90;;;;;;5030946;28;20267;-48
2023/02/23 13:53:45;;;;;;;7.90;7.10;;;14.10;99.90;;;;;;5024604;28;20665;-49
2023/02/23 13:56:17;;;;;;;11.70;7.63;;;14.20;99.90;;;;;;5024586;28;20209;-49
2023/02/23 13:58:47;;;;;;;9.40;7.80;;;14.30;99.90;;;;;;5030901;28;20307;-48
2023/02/23 14:01:17;;;;;;;9.67;6.03;;;14.50;99.90;;;;;;5030718;28;20206;-49
2023/02/23 14:03:47;;;;;;;9.63;6.20;;;14.50;99.90;;;;;;5030067;28;20207;-48
2023/02/23 14:06:17;;;;;;;10.00;9.00;;;14.50;99.90;;;;;;5030634;28;20333;-48
2023/02/23 14:08:52;;;;;;;10.97;8.67;;;14.50;99.90;;;;;;5030596;28;20757;-49
2023/02/23 14:11:35;;;;;;;11.23;9.03;;;14.40;99.90;;;;;;5030710;28;20696;-49